createdAt,value
2018-06-23T00:00:08.808Z,18.74
2018-06-23T00:01:08.774Z,18.73
2018-06-23T00:02:08.796Z,18.52
2018-06-23T00:03:08.812Z,18.42
2018-06-23T00:04:08.836Z,18.49
2018-06-23T00:05:08.854Z,18.68
2018-06-23T00:06:08.876Z,18.67
2018-06-23T00:07:08.901Z,18.73
2018-06-23T00:08:08.922Z,18.73
2018-06-23T00:09:08.951Z,18.76
2018-06-23T00:10:08.972Z,18.55
2018-06-23T00:11:08.992Z,18.64
2018-06-23T00:12:09.031Z,18.74
2018-06-23T00:13:09.036Z,18.70
2018-06-23T00:14:09.059Z,18.73
2018-06-23T00:15:09.073Z,18.76
2018-06-23T00:16:09.100Z,18.74
2018-06-23T00:17:09.116Z,18.67
2018-06-23T00:18:09.141Z,18.64
2018-06-23T00:19:09.160Z,18.52
2018-06-23T00:20:09.189Z,18.55
2018-06-23T00:21:09.206Z,18.52
2018-06-23T00:22:09.228Z,18.70
2018-06-23T00:23:09.245Z,18.27
2018-06-23T00:24:09.266Z,18.43
2018-06-23T00:25:09.294Z,18.03
2018-06-23T00:26:09.316Z,18.33
2018-06-23T00:27:09.347Z,18.39
2018-06-23T00:28:09.355Z,18.42
2018-06-23T00:29:09.380Z,18.28
2018-06-23T00:30:09.395Z,18.29
2018-06-23T00:31:09.425Z,18.49
2018-06-23T00:32:09.436Z,18.52
2018-06-23T00:33:09.461Z,18.52
2018-06-23T00:34:09.486Z,18.52
2018-06-23T00:35:09.510Z,18.46
2018-06-23T00:36:09.530Z,18.49
2018-06-23T00:37:09.545Z,18.64
2018-06-23T00:38:09.570Z,18.58
2018-06-23T00:39:09.593Z,18.55
2018-06-23T00:40:09.617Z,18.54
2018-06-23T00:41:09.631Z,18.37
2018-06-23T00:42:09.657Z,18.40
2018-06-23T00:43:09.680Z,18.39
2018-06-23T00:44:09.694Z,18.39
2018-06-23T00:45:09.720Z,18.31
2018-06-23T00:46:09.741Z,18.37
2018-06-23T00:47:09.763Z,18.54
2018-06-23T00:48:09.787Z,18.43
2018-06-23T00:49:09.811Z,18.42
2018-06-23T00:50:09.833Z,18.40
2018-06-23T00:51:09.848Z,18.33
2018-06-23T00:52:09.873Z,18.40
2018-06-23T00:53:09.885Z,18.22
2018-06-23T00:54:09.907Z,18.29
2018-06-23T00:55:09.930Z,18.39
2018-06-23T00:56:09.955Z,18.49
2018-06-23T00:57:10.046Z,18.54
2018-06-23T00:58:09.995Z,18.47
2018-06-23T00:59:10.020Z,18.37
2018-06-23T01:00:10.052Z,18.40
2018-06-23T01:01:10.058Z,18.40
2018-06-23T01:02:10.098Z,18.39
2018-06-23T01:03:10.112Z,17.92
2018-06-23T01:04:10.124Z,17.81
2018-06-23T01:05:10.150Z,18.17
2018-06-23T01:06:10.177Z,18.33
2018-06-23T01:07:10.187Z,18.39
2018-06-23T01:08:10.215Z,18.02
2018-06-23T01:09:10.241Z,18.15
2018-06-23T01:10:10.269Z,18.13
2018-06-23T01:11:10.278Z,18.36
2018-06-23T01:12:10.295Z,18.40
2018-06-23T01:13:10.324Z,18.37
2018-06-23T01:14:10.347Z,18.36
2018-06-23T01:15:10.359Z,18.24
2018-06-23T01:16:10.389Z,18.24
2018-06-23T01:17:10.409Z,18.24
2018-06-23T01:18:10.434Z,18.37
2018-06-23T01:19:10.442Z,18.00
2018-06-23T01:20:10.463Z,18.17
2018-06-23T01:21:10.494Z,18.21
2018-06-23T01:22:10.504Z,18.02
2018-06-23T01:23:10.527Z,17.99
2018-06-23T01:24:10.554Z,18.13
2018-06-23T01:25:10.575Z,18.21
2018-06-23T01:26:10.597Z,18.25
2018-06-23T01:27:10.621Z,18.29
2018-06-23T01:28:10.635Z,18.36
2018-06-23T01:29:10.659Z,18.39
2018-06-23T01:30:10.678Z,18.33
2018-06-23T01:31:10.698Z,18.06
2018-06-23T01:32:10.724Z,18.28
2018-06-23T01:33:10.756Z,18.31
2018-06-23T01:34:10.768Z,17.94
2018-06-23T01:35:10.789Z,17.91
2018-06-23T01:36:10.810Z,17.78
2018-06-23T01:37:10.826Z,17.85
2018-06-23T01:38:10.853Z,17.92
2018-06-23T01:39:10.872Z,17.99
2018-06-23T01:40:10.885Z,18.12
2018-06-23T01:41:10.912Z,18.18
2018-06-23T01:42:10.936Z,18.15
2018-06-23T01:43:10.954Z,18.19
2018-06-23T01:44:10.978Z,18.09
2018-06-23T01:45:11.011Z,18.00
2018-06-23T01:46:11.019Z,18.04
2018-06-23T01:47:11.034Z,18.06
2018-06-23T01:48:11.059Z,18.09
2018-06-23T01:49:11.085Z,18.09
2018-06-23T01:50:11.108Z,18.09
2018-06-23T01:51:11.125Z,18.18
2018-06-23T01:52:11.150Z,17.94
2018-06-23T01:53:11.168Z,17.85
2018-06-23T01:54:11.189Z,18.02
2018-06-23T01:55:11.210Z,17.99
2018-06-23T01:56:11.227Z,18.02
2018-06-23T01:57:11.254Z,18.00
2018-06-23T01:58:11.271Z,17.84
2018-06-23T01:59:11.296Z,17.81
2018-06-23T02:00:11.315Z,17.88
2018-06-23T02:01:11.332Z,18.02
2018-06-23T02:02:11.358Z,17.95
2018-06-23T02:03:11.376Z,18.02
2018-06-23T02:04:11.399Z,18.07
2018-06-23T02:05:11.423Z,18.04
2018-06-23T02:06:11.443Z,18.06
2018-06-23T02:07:11.461Z,17.92
2018-06-23T02:08:11.476Z,17.78
2018-06-23T02:09:11.501Z,17.79
2018-06-23T02:10:11.523Z,17.82
2018-06-23T02:11:11.545Z,17.81
2018-06-23T02:12:11.563Z,17.95
2018-06-23T02:13:11.586Z,17.95
2018-06-23T02:14:11.615Z,17.64
2018-06-23T02:15:11.627Z,17.70
2018-06-23T02:16:11.654Z,17.84
2018-06-23T02:17:11.673Z,18.00
2018-06-23T02:18:11.694Z,17.97
2018-06-23T02:19:11.709Z,17.76
2018-06-23T02:20:11.740Z,17.78
2018-06-23T02:21:11.763Z,17.87
2018-06-23T02:22:11.780Z,17.85
2018-06-23T02:23:11.796Z,17.94
2018-06-23T02:24:11.814Z,17.53
2018-06-23T02:25:11.839Z,17.76
2018-06-23T02:26:11.862Z,17.81
2018-06-23T02:27:11.880Z,17.43
2018-06-23T02:28:11.911Z,17.63
2018-06-23T02:29:11.924Z,17.73
2018-06-23T02:30:11.944Z,17.85
2018-06-23T02:31:11.972Z,17.57
2018-06-23T02:32:11.986Z,17.73
2018-06-23T02:33:12.009Z,17.73
2018-06-23T02:34:12.032Z,17.76
2018-06-23T02:35:12.060Z,17.73
2018-06-23T02:36:12.071Z,17.81
2018-06-23T02:37:12.094Z,17.85
2018-06-23T02:38:12.112Z,17.59
2018-06-23T02:39:12.131Z,17.64
2018-06-23T02:40:12.157Z,17.79
2018-06-23T02:41:12.176Z,17.81
2018-06-23T02:42:12.200Z,17.78
2018-06-23T02:43:12.222Z,17.82
2018-06-23T02:44:12.240Z,17.76
2018-06-23T02:45:12.261Z,17.33
2018-06-23T02:46:12.281Z,17.66
2018-06-23T02:47:12.302Z,17.70
2018-06-23T02:48:12.322Z,17.82
2018-06-23T02:49:12.344Z,17.70
2018-06-23T02:50:12.390Z,17.43
2018-06-23T02:51:12.381Z,17.55
2018-06-23T02:52:12.403Z,17.28
2018-06-23T02:53:12.440Z,17.51
2018-06-23T02:54:12.446Z,17.32
2018-06-23T02:55:12.473Z,17.55
2018-06-23T02:56:12.486Z,17.73
2018-06-23T02:57:12.508Z,17.81
2018-06-23T02:58:12.533Z,17.79
2018-06-23T02:59:12.571Z,17.76
2018-06-23T03:00:12.573Z,17.59
2018-06-23T03:01:12.589Z,17.53
2018-06-23T03:02:12.612Z,17.55
2018-06-23T03:03:12.636Z,17.63
2018-06-23T03:04:12.656Z,17.66
2018-06-23T03:05:12.689Z,17.63
2018-06-23T03:06:12.693Z,17.64
2018-06-23T03:07:12.718Z,17.62
2018-06-23T03:08:12.746Z,17.67
2018-06-23T03:09:12.764Z,17.70
2018-06-23T03:10:12.782Z,17.44
2018-06-23T03:11:12.797Z,17.67
2018-06-23T03:12:12.842Z,17.79
2018-06-23T03:13:12.851Z,17.79
2018-06-23T03:14:12.863Z,17.66
2018-06-23T03:15:12.894Z,17.79
2018-06-23T03:16:12.912Z,17.59
2018-06-23T03:17:12.926Z,17.30
2018-06-23T03:18:12.946Z,17.44
2018-06-23T03:19:12.971Z,17.50
2018-06-23T03:20:12.999Z,17.57
2018-06-23T03:21:13.009Z,17.62
2018-06-23T03:22:13.029Z,17.51
2018-06-23T03:23:13.052Z,17.62
2018-06-23T03:24:13.072Z,17.35
2018-06-23T03:25:13.094Z,17.17
2018-06-23T03:26:13.112Z,17.41
2018-06-23T03:27:13.143Z,17.46
2018-06-23T03:28:13.151Z,17.38
2018-06-23T03:29:13.168Z,17.44
2018-06-23T03:30:13.205Z,17.11
2018-06-23T03:31:13.226Z,17.47
2018-06-23T03:32:13.230Z,17.48
2018-06-23T03:33:13.254Z,17.50
2018-06-23T03:34:13.279Z,17.55
2018-06-23T03:35:13.318Z,17.55
2018-06-23T03:36:13.317Z,17.30
2018-06-23T03:37:13.340Z,17.47
2018-06-23T03:38:13.357Z,17.44
2018-06-23T03:39:13.381Z,17.40
2018-06-23T03:40:13.403Z,17.43
2018-06-23T03:41:13.421Z,17.41
2018-06-23T03:42:13.452Z,17.43
2018-06-23T03:43:13.469Z,17.54
2018-06-23T03:44:13.489Z,17.44
2018-06-23T03:45:13.517Z,17.47
2018-06-23T03:46:13.552Z,17.44
2018-06-23T03:47:13.545Z,17.51
2018-06-23T03:48:13.567Z,17.54
2018-06-23T03:49:13.588Z,17.43
2018-06-23T03:50:13.616Z,17.59
2018-06-23T03:51:13.626Z,17.54
2018-06-23T03:52:13.649Z,17.51
2018-06-23T03:53:13.670Z,17.53
2018-06-23T03:54:13.690Z,17.41
2018-06-23T03:55:13.704Z,17.33
2018-06-23T03:56:13.734Z,17.26
2018-06-23T03:57:13.766Z,17.28
2018-06-23T03:58:13.783Z,17.13
2018-06-23T03:59:13.792Z,17.18
2018-06-23T04:00:13.818Z,17.28
2018-06-23T04:01:13.844Z,17.38
2018-06-23T04:02:13.856Z,17.29
2018-06-23T04:03:13.877Z,17.23
2018-06-23T04:04:13.898Z,17.30
2018-06-23T04:05:13.920Z,17.38
2018-06-23T04:06:13.936Z,17.53
2018-06-23T04:07:13.974Z,17.44
2018-06-23T04:08:13.981Z,17.32
2018-06-23T04:09:13.996Z,17.29
2018-06-23T04:10:14.016Z,17.32
2018-06-23T04:11:14.066Z,17.29
2018-06-23T04:12:14.065Z,17.40
2018-06-23T04:13:14.085Z,17.18
2018-06-23T04:14:14.101Z,17.40
2018-06-23T04:15:14.128Z,17.43
2018-06-23T04:16:14.151Z,17.41
2018-06-23T04:17:14.164Z,17.38
2018-06-23T04:18:14.191Z,17.40
2018-06-23T04:19:14.206Z,17.38
2018-06-23T04:20:14.221Z,17.20
2018-06-23T04:21:14.239Z,17.25
2018-06-23T04:22:14.268Z,17.33
2018-06-23T04:23:14.285Z,17.38
2018-06-23T04:24:14.307Z,17.41
2018-06-23T04:25:14.333Z,17.41
2018-06-23T04:26:14.350Z,17.38
2018-06-23T04:27:14.372Z,17.59
2018-06-23T04:28:14.386Z,17.53
2018-06-23T04:29:14.456Z,17.33
2018-06-23T04:30:14.432Z,17.18
2018-06-23T04:31:14.454Z,17.41
2018-06-23T04:32:14.474Z,17.46
2018-06-23T04:33:14.502Z,17.51
2018-06-23T04:34:14.522Z,17.47
2018-06-23T04:35:14.529Z,17.53
2018-06-23T04:36:14.560Z,17.53
2018-06-23T04:37:14.576Z,17.53
2018-06-23T04:38:14.594Z,17.40
2018-06-23T04:39:14.620Z,17.41
2018-06-23T04:40:14.646Z,17.33
2018-06-23T04:41:14.660Z,17.28
2018-06-23T04:42:14.679Z,17.40
2018-06-23T04:43:14.712Z,17.30
2018-06-23T04:44:14.745Z,17.18
2018-06-23T04:45:14.744Z,17.32
2018-06-23T04:46:14.762Z,17.30
2018-06-23T04:47:14.782Z,17.41
2018-06-23T04:48:14.806Z,17.53
2018-06-23T04:49:14.823Z,17.57
2018-06-23T04:50:14.840Z,17.55
2018-06-23T04:51:14.889Z,17.44
2018-06-23T04:52:14.898Z,17.36
2018-06-23T04:53:14.912Z,17.53
2018-06-23T04:54:14.925Z,17.48
2018-06-23T04:55:14.950Z,17.50
2018-06-23T04:56:14.966Z,17.54
2018-06-23T04:57:14.990Z,17.54
2018-06-23T04:58:15.017Z,17.38
2018-06-23T04:59:15.031Z,17.48
2018-06-23T05:00:15.049Z,17.26
2018-06-23T05:01:15.073Z,17.26
2018-06-23T05:02:15.097Z,17.40
2018-06-23T05:03:15.116Z,17.23
2018-06-23T05:04:15.144Z,17.47
2018-06-23T05:05:15.152Z,17.51
2018-06-23T05:06:15.171Z,17.53
2018-06-23T05:07:15.199Z,17.50
2018-06-23T05:08:15.213Z,17.57
2018-06-23T05:09:15.236Z,17.28
2018-06-23T05:10:15.260Z,17.44
2018-06-23T05:11:15.274Z,17.44
2018-06-23T05:12:15.332Z,17.57
2018-06-23T05:13:15.319Z,17.32
2018-06-23T05:14:15.337Z,17.33
2018-06-23T05:15:15.358Z,17.29
2018-06-23T05:16:15.382Z,17.07
2018-06-23T05:17:15.401Z,17.29
2018-06-23T05:18:15.422Z,17.40
2018-06-23T05:19:15.445Z,17.53
2018-06-23T05:20:15.495Z,17.33
2018-06-23T05:21:15.487Z,17.48
2018-06-23T05:22:15.508Z,17.53
2018-06-23T05:23:15.530Z,17.62
2018-06-23T05:24:15.545Z,17.63
2018-06-23T05:25:15.565Z,17.64
2018-06-23T05:26:15.630Z,17.57
2018-06-23T05:27:15.623Z,17.55
2018-06-23T05:28:15.629Z,17.66
2018-06-23T05:29:15.650Z,17.70
2018-06-23T05:30:15.673Z,17.66
2018-06-23T05:31:15.693Z,17.64
2018-06-23T05:32:15.713Z,17.59
2018-06-23T05:33:15.735Z,17.71
2018-06-23T05:34:15.763Z,17.71
2018-06-23T05:35:15.775Z,17.71
2018-06-23T05:36:15.797Z,17.59
2018-06-23T05:37:15.817Z,17.54
2018-06-23T05:38:15.832Z,17.54
2018-06-23T05:39:15.861Z,17.73
2018-06-23T05:40:15.878Z,17.67
2018-06-23T05:41:15.900Z,17.62
2018-06-23T05:42:15.937Z,17.57
2018-06-23T05:43:15.937Z,17.70
2018-06-23T05:44:15.976Z,17.70
2018-06-23T05:45:15.982Z,17.70
2018-06-23T05:46:16.003Z,17.81
2018-06-23T05:47:16.022Z,17.71
2018-06-23T05:48:16.046Z,17.78
2018-06-23T05:49:16.063Z,17.74
2018-06-23T05:50:16.089Z,17.81
2018-06-23T05:51:16.120Z,17.79
2018-06-23T05:52:16.127Z,17.76
2018-06-23T05:53:16.145Z,17.79
2018-06-23T05:54:16.246Z,17.73
2018-06-23T05:55:16.311Z,17.81
2018-06-23T05:56:16.207Z,17.76
2018-06-23T05:57:16.236Z,17.82
2018-06-23T05:58:16.256Z,17.73
2018-06-23T05:59:16.270Z,17.81
2018-06-23T06:00:16.296Z,17.81
2018-06-23T06:01:16.313Z,17.92
2018-06-23T06:02:16.338Z,17.87
2018-06-23T06:03:16.357Z,17.81
2018-06-23T06:04:16.379Z,17.82
2018-06-23T06:05:16.398Z,17.85
2018-06-23T06:06:16.424Z,17.81
2018-06-23T06:07:16.444Z,17.95
2018-06-23T06:08:16.464Z,17.88
2018-06-23T06:09:16.510Z,17.92
2018-06-23T06:10:16.508Z,17.92
2018-06-23T06:11:16.532Z,17.95
2018-06-23T06:12:16.545Z,17.92
2018-06-23T06:13:16.569Z,18.02
2018-06-23T06:14:16.588Z,18.04
2018-06-23T06:15:16.630Z,18.00
2018-06-23T06:16:16.634Z,17.94
2018-06-23T06:17:16.659Z,17.92
2018-06-23T06:18:16.674Z,17.92
2018-06-23T06:19:16.695Z,18.06
2018-06-23T06:20:16.715Z,18.03
2018-06-23T06:21:16.735Z,17.97
2018-06-23T06:22:17.281Z,18.00
2018-06-23T06:23:16.777Z,18.03
2018-06-23T06:24:16.799Z,17.97
2018-06-23T06:25:16.827Z,18.06
2018-06-23T06:26:16.841Z,18.02
2018-06-23T06:27:16.857Z,18.06
2018-06-23T06:28:16.879Z,18.07
2018-06-23T06:29:16.903Z,18.13
2018-06-23T06:30:16.926Z,18.12
2018-06-23T06:31:16.946Z,18.04
2018-06-23T06:32:16.968Z,17.99
2018-06-23T06:33:16.985Z,18.00
2018-06-23T06:34:17.007Z,17.95
2018-06-23T06:35:17.040Z,18.07
2018-06-23T06:36:17.054Z,18.07
2018-06-23T06:37:17.071Z,18.03
2018-06-23T06:38:17.095Z,18.06
2018-06-23T06:39:17.112Z,18.09
2018-06-23T06:40:17.133Z,18.15
2018-06-23T06:41:17.154Z,18.12
2018-06-23T06:42:17.181Z,18.10
2018-06-23T06:43:17.200Z,18.15
2018-06-23T06:44:17.220Z,18.15
2018-06-23T06:45:17.239Z,18.19
2018-06-23T06:46:17.264Z,18.13
2018-06-23T06:47:17.295Z,18.24
2018-06-23T06:48:17.302Z,18.18
2018-06-23T06:49:17.327Z,17.89
2018-06-23T06:50:17.345Z,17.81
2018-06-23T06:51:17.386Z,18.03
2018-06-23T06:52:17.394Z,18.00
2018-06-23T06:53:17.421Z,18.12
2018-06-23T06:54:17.435Z,18.04
2018-06-23T06:55:17.463Z,18.18
2018-06-23T06:56:17.475Z,18.10
2018-06-23T06:57:17.498Z,18.10
2018-06-23T06:58:17.518Z,18.21
2018-06-23T06:59:17.541Z,18.21
2018-06-23T07:00:17.554Z,18.07
2018-06-23T07:01:17.586Z,18.21
2018-06-23T07:02:17.603Z,18.21
2018-06-23T07:03:17.644Z,18.27
2018-06-23T07:04:17.648Z,18.34
2018-06-23T07:05:17.666Z,18.31
2018-06-23T07:06:17.689Z,18.24
2018-06-23T07:07:17.714Z,18.24
2018-06-23T07:08:17.738Z,18.17
2018-06-23T07:09:17.755Z,18.10
2018-06-23T07:10:17.774Z,18.17
2018-06-23T07:11:17.791Z,17.97
2018-06-23T07:12:17.832Z,18.19
2018-06-23T07:13:17.843Z,18.22
2018-06-23T07:14:17.857Z,18.13
2018-06-23T07:15:17.899Z,18.24
2018-06-23T07:16:17.902Z,18.27
2018-06-23T07:17:17.923Z,18.29
2018-06-23T07:18:17.947Z,18.28
2018-06-23T07:19:17.965Z,18.27
2018-06-23T07:20:17.988Z,18.36
2018-06-23T07:21:18.007Z,18.21
2018-06-23T07:22:18.028Z,18.24
2018-06-23T07:23:18.045Z,18.02
2018-06-23T07:24:18.068Z,18.21
2018-06-23T07:25:18.092Z,18.24
2018-06-23T07:26:18.132Z,18.21
2018-06-23T07:27:18.136Z,18.17
2018-06-23T07:28:18.157Z,18.24
2018-06-23T07:29:18.178Z,18.22
2018-06-23T07:30:18.196Z,18.19
2018-06-23T07:31:18.217Z,18.06
2018-06-23T07:32:18.241Z,18.18
2018-06-23T07:33:18.278Z,18.25
2018-06-23T07:34:18.303Z,17.99
2018-06-23T07:35:18.554Z,18.07
2018-06-23T07:36:18.352Z,18.13
2018-06-23T07:37:18.368Z,18.10
2018-06-23T07:38:18.366Z,18.18
2018-06-23T07:39:18.404Z,18.18
2018-06-23T07:40:18.418Z,18.12
2018-06-23T07:41:18.450Z,18.06
2018-06-23T07:42:18.456Z,18.15
2018-06-23T07:43:18.483Z,18.07
2018-06-23T07:44:18.507Z,18.18
2018-06-23T07:45:18.526Z,18.28
2018-06-23T07:46:18.561Z,18.31
2018-06-23T07:47:18.564Z,18.27
2018-06-23T07:48:18.580Z,18.42
2018-06-23T07:49:18.623Z,18.36
2018-06-23T07:50:18.630Z,18.34
2018-06-23T07:51:18.651Z,18.40
2018-06-23T07:52:18.673Z,18.49
2018-06-23T07:53:18.684Z,18.58
2018-06-23T07:54:18.709Z,18.57
2018-06-23T07:55:18.732Z,18.57
2018-06-23T07:56:18.815Z,18.64
2018-06-23T07:57:18.776Z,18.64
2018-06-23T07:58:18.804Z,18.62
2018-06-23T07:59:18.819Z,18.40
2018-06-23T08:00:18.834Z,18.64
2018-06-23T08:01:18.870Z,18.68
2018-06-23T08:02:18.882Z,18.77
2018-06-23T08:03:18.908Z,18.76
2018-06-23T08:04:18.932Z,18.68
2018-06-23T08:05:18.951Z,18.82
2018-06-23T08:06:18.971Z,18.77
2018-06-23T08:07:18.986Z,18.73
2018-06-23T08:08:19.019Z,18.73
2018-06-23T08:09:19.034Z,18.77
2018-06-23T08:10:19.058Z,18.77
2018-06-23T08:11:19.079Z,18.73
2018-06-23T08:12:19.103Z,18.68
2018-06-23T08:13:19.133Z,18.77
2018-06-23T08:14:19.167Z,18.77
2018-06-23T08:15:19.177Z,18.76
2018-06-23T08:16:19.186Z,18.82
2018-06-23T08:17:19.208Z,18.82
2018-06-23T08:18:19.229Z,18.86
2018-06-23T08:19:19.252Z,18.86
2018-06-23T08:20:19.278Z,18.74
2018-06-23T08:21:19.293Z,18.84
2018-06-23T08:22:19.316Z,18.73
2018-06-23T08:23:19.338Z,18.72
2018-06-23T08:24:19.369Z,18.58
2018-06-23T08:25:19.382Z,18.52
2018-06-23T08:26:19.414Z,18.58
2018-06-23T08:27:19.441Z,18.67
2018-06-23T08:28:19.452Z,18.67
2018-06-23T08:29:19.485Z,18.79
2018-06-23T08:30:19.492Z,18.49
2018-06-23T08:31:19.513Z,18.42
2018-06-23T08:32:19.540Z,18.67
2018-06-23T08:33:19.555Z,18.64
2018-06-23T08:34:19.589Z,18.64
2018-06-23T08:35:19.602Z,18.74
2018-06-23T08:36:19.626Z,18.76
2018-06-23T08:37:19.647Z,18.64
2018-06-23T08:38:19.670Z,18.65
2018-06-23T08:39:19.692Z,18.77
2018-06-23T08:40:19.710Z,18.73
2018-06-23T08:41:19.747Z,18.74
2018-06-23T08:42:19.762Z,18.67
2018-06-23T08:43:19.784Z,18.68
2018-06-23T08:44:19.798Z,18.72
2018-06-23T08:45:19.820Z,18.77
2018-06-23T08:46:19.846Z,18.82
2018-06-23T08:47:19.861Z,18.84
2018-06-23T08:48:19.886Z,18.84
2018-06-23T08:49:19.908Z,18.91
2018-06-23T08:50:19.932Z,18.86
2018-06-23T08:51:20.021Z,18.86
2018-06-23T08:52:19.976Z,18.87
2018-06-23T08:53:19.997Z,18.87
2018-06-23T08:54:20.025Z,18.84
2018-06-23T08:55:20.038Z,18.57
2018-06-23T08:56:20.068Z,18.65
2018-06-23T08:57:20.086Z,18.84
2018-06-23T08:58:20.109Z,18.92
2018-06-23T08:59:20.124Z,18.97
2018-06-23T09:00:20.151Z,19.02
2018-06-23T09:01:20.168Z,19.02
2018-06-23T09:02:20.200Z,19.06
2018-06-23T09:03:20.241Z,19.10
2018-06-23T09:04:20.233Z,19.13
2018-06-23T09:05:20.260Z,19.13
2018-06-23T09:06:20.283Z,19.05
2018-06-23T09:07:20.307Z,19.13
2018-06-23T09:08:20.326Z,18.97
2018-06-23T09:09:20.350Z,19.06
2018-06-23T09:10:20.368Z,19.06
2018-06-23T09:11:20.400Z,19.06
2018-06-23T09:12:20.412Z,19.20
2018-06-23T09:13:20.439Z,19.06
2018-06-23T09:14:20.455Z,19.10
2018-06-23T09:15:20.485Z,19.20
2018-06-23T09:16:20.507Z,19.14
2018-06-23T09:17:20.535Z,18.97
2018-06-23T09:18:20.569Z,18.97
2018-06-23T09:19:20.572Z,18.99
2018-06-23T09:20:20.589Z,19.10
2018-06-23T09:21:20.614Z,19.02
2018-06-23T09:22:20.632Z,19.11
2018-06-23T09:23:20.668Z,19.01
2018-06-23T09:24:20.679Z,18.99
2018-06-23T09:25:20.712Z,19.01
2018-06-23T09:26:20.736Z,18.95
2018-06-23T09:27:20.748Z,18.80
2018-06-23T09:28:20.840Z,18.95
2018-06-23T09:29:20.792Z,19.06
2018-06-23T09:30:20.818Z,19.08
2018-06-23T09:31:20.837Z,19.15
2018-06-23T09:32:20.862Z,19.25
2018-06-23T09:33:20.889Z,19.24
2018-06-23T09:34:20.912Z,19.28
2018-06-23T09:35:20.921Z,19.25
2018-06-23T09:36:20.949Z,19.21
2018-06-23T09:37:20.976Z,19.23
2018-06-23T09:38:21.031Z,19.24
2018-06-23T09:39:21.012Z,19.28
2018-06-23T09:40:21.080Z,19.15
2018-06-23T09:41:21.061Z,19.15
2018-06-23T09:42:21.077Z,19.17
2018-06-23T09:43:21.100Z,19.20
2018-06-23T09:44:21.128Z,19.21
2018-06-23T09:45:21.153Z,18.98
2018-06-23T09:46:21.177Z,18.97
2018-06-23T09:47:21.193Z,18.84
2018-06-23T09:48:21.220Z,18.97
2018-06-23T09:49:21.243Z,19.05
2018-06-23T09:50:21.270Z,19.10
2018-06-23T09:51:21.332Z,19.11
2018-06-23T09:52:21.310Z,19.20
2018-06-23T09:53:21.327Z,19.21
2018-06-23T09:54:21.355Z,19.14
2018-06-23T09:55:21.380Z,19.13
2018-06-23T09:56:21.390Z,19.25
2018-06-23T09:57:21.421Z,19.11
2018-06-23T09:58:21.451Z,19.13
2018-06-23T09:59:21.457Z,19.06
2018-06-23T10:00:21.483Z,19.08
2018-06-23T10:01:21.510Z,19.13
2018-06-23T10:02:21.532Z,19.17
2018-06-23T10:03:21.548Z,19.24
2018-06-23T10:04:21.571Z,19.17
2018-06-23T10:05:21.612Z,19.20
2018-06-23T10:06:21.620Z,19.28
2018-06-23T10:07:21.744Z,19.28
2018-06-23T10:08:21.664Z,19.23
2018-06-23T10:09:21.685Z,19.24
2018-06-23T10:10:21.715Z,19.32
2018-06-23T10:11:21.732Z,19.28
2018-06-23T10:12:21.754Z,19.25
2018-06-23T10:13:21.771Z,19.38
2018-06-23T10:14:21.796Z,19.25
2018-06-23T10:15:21.857Z,19.25
2018-06-23T10:16:21.845Z,19.33
2018-06-23T10:17:21.867Z,19.24
2018-06-23T10:18:21.902Z,19.21
2018-06-23T10:19:21.909Z,19.24
2018-06-23T10:20:21.941Z,19.28
2018-06-23T10:21:22.009Z,19.36
2018-06-23T10:22:21.977Z,19.28
2018-06-23T10:23:22.011Z,19.38
2018-06-23T10:24:22.020Z,19.25
2018-06-23T10:25:22.045Z,19.28
2018-06-23T10:26:22.071Z,19.40
2018-06-23T10:27:22.101Z,19.25
2018-06-23T10:28:22.112Z,19.28
2018-06-23T10:29:22.129Z,19.36
2018-06-23T10:30:22.159Z,19.24
2018-06-23T10:31:22.179Z,19.21
2018-06-23T10:32:22.197Z,19.20
2018-06-23T10:33:22.222Z,19.23
2018-06-23T10:34:22.239Z,19.23
2018-06-23T10:35:22.273Z,19.20
2018-06-23T10:36:22.290Z,19.08
2018-06-23T10:37:22.314Z,19.23
2018-06-23T10:38:22.385Z,19.31
2018-06-23T10:39:22.368Z,19.29
2018-06-23T10:40:22.382Z,19.36
2018-06-23T10:41:22.404Z,19.35
2018-06-23T10:42:22.435Z,19.38
2018-06-23T10:43:22.447Z,19.24
2018-06-23T10:44:22.479Z,19.23
2018-06-23T10:45:22.493Z,19.17
2018-06-23T10:46:22.536Z,19.25
2018-06-23T10:47:22.542Z,19.31
2018-06-23T10:48:22.560Z,19.33
2018-06-23T10:49:22.583Z,19.36
2018-06-23T10:50:22.608Z,19.32
2018-06-23T10:51:22.630Z,19.31
2018-06-23T10:52:22.661Z,19.25
2018-06-23T10:53:22.670Z,19.28
2018-06-23T10:54:22.690Z,19.36
2018-06-23T10:55:22.724Z,19.36
2018-06-23T10:56:22.761Z,19.42
2018-06-23T10:57:22.785Z,19.40
2018-06-23T10:58:22.778Z,19.47
2018-06-23T10:59:22.868Z,19.54
2018-06-23T11:00:22.823Z,19.46
2018-06-23T11:01:22.851Z,19.48
2018-06-23T11:02:22.881Z,19.46
2018-06-23T11:03:22.898Z,19.55
2018-06-23T11:04:22.922Z,19.58
2018-06-23T11:05:22.944Z,19.46
2018-06-23T11:06:23.502Z,19.53
2018-06-23T11:07:23.031Z,19.53
2018-06-23T11:08:23.008Z,19.51
2018-06-23T11:09:23.037Z,19.43
2018-06-23T11:10:23.049Z,19.51
2018-06-23T11:11:23.083Z,19.58
2018-06-23T11:12:23.108Z,19.53
2018-06-23T11:13:23.120Z,19.53
2018-06-23T11:14:23.146Z,19.60
2018-06-23T11:15:23.167Z,19.66
2018-06-23T11:16:23.189Z,19.60
2018-06-23T11:17:23.212Z,19.63
2018-06-23T11:18:23.242Z,19.63
2018-06-23T11:19:23.267Z,19.61
2018-06-23T11:20:23.279Z,19.63
2018-06-23T11:21:23.309Z,19.63
2018-06-23T11:22:23.328Z,19.60
2018-06-23T11:23:23.357Z,19.61
2018-06-23T11:24:23.508Z,19.54
2018-06-23T11:25:23.400Z,19.55
2018-06-23T11:26:23.415Z,19.53
2018-06-23T11:27:23.438Z,19.53
2018-06-23T11:28:23.462Z,19.53
2018-06-23T11:29:23.479Z,19.65
2018-06-23T11:30:23.506Z,19.60
2018-06-23T11:31:23.533Z,19.61
2018-06-23T11:32:23.561Z,19.68
2018-06-23T11:33:23.579Z,19.60
2018-06-23T11:34:23.599Z,19.63
2018-06-23T11:35:23.621Z,19.70
2018-06-23T11:36:23.647Z,19.60
2018-06-23T11:37:23.666Z,19.73
2018-06-23T11:38:23.687Z,19.76
2018-06-23T11:39:23.743Z,19.66
2018-06-23T11:40:23.736Z,19.69
2018-06-23T11:41:23.843Z,19.70
2018-06-23T11:42:23.780Z,19.70
2018-06-23T11:43:23.796Z,19.78
2018-06-23T11:44:23.836Z,19.75
2018-06-23T11:45:23.885Z,19.73
2018-06-23T11:46:23.870Z,19.76
2018-06-23T11:47:23.891Z,19.76
2018-06-23T11:48:23.919Z,19.84
2018-06-23T11:49:23.942Z,19.84
2018-06-23T11:50:23.957Z,19.90
2018-06-23T11:51:24.022Z,19.84
2018-06-23T11:52:24.018Z,19.87
2018-06-23T11:53:24.030Z,19.83
2018-06-23T11:54:24.058Z,19.86
2018-06-23T11:55:24.073Z,19.87
2018-06-23T11:56:24.101Z,19.86
2018-06-23T11:57:24.122Z,19.80
2018-06-23T11:58:24.144Z,19.88
2018-06-23T11:59:24.165Z,19.87
2018-06-23T12:00:24.189Z,19.95
2018-06-23T12:01:24.213Z,19.94
2018-06-23T12:02:24.240Z,19.90
2018-06-23T12:03:24.265Z,19.94
2018-06-23T12:04:24.285Z,19.97
2018-06-23T12:05:24.306Z,19.88
2018-06-23T12:06:24.330Z,19.93
2018-06-23T12:07:24.351Z,19.93
2018-06-23T12:08:24.377Z,19.91
2018-06-23T12:09:24.402Z,20.10
2018-06-23T12:10:24.431Z,20.05
2018-06-23T12:11:24.439Z,20.10
2018-06-23T12:12:24.471Z,20.09
2018-06-23T12:13:24.497Z,20.13
2018-06-23T12:14:24.514Z,20.15
2018-06-23T12:15:24.539Z,20.10
2018-06-23T12:16:24.562Z,20.15
2018-06-23T12:17:24.584Z,20.05
2018-06-23T12:18:24.603Z,20.16
2018-06-23T12:19:24.632Z,20.02
2018-06-23T12:20:24.662Z,20.08
2018-06-23T12:21:24.688Z,20.13
2018-06-23T12:22:24.699Z,20.15
2018-06-23T12:23:24.720Z,20.23
2018-06-23T12:24:24.742Z,20.25
2018-06-23T12:25:24.780Z,20.23
2018-06-23T12:26:24.799Z,20.27
2018-06-23T12:27:24.823Z,20.23
2018-06-23T12:28:24.850Z,20.28
2018-06-23T12:29:24.868Z,20.24
2018-06-23T12:30:24.888Z,20.27
2018-06-23T12:31:24.909Z,20.30
2018-06-23T12:32:24.939Z,20.28
2018-06-23T12:33:24.959Z,20.31
2018-06-23T12:34:25.037Z,20.34
2018-06-23T12:35:25.005Z,20.47
2018-06-23T12:36:25.027Z,20.43
2018-06-23T12:37:25.050Z,20.46
2018-06-23T12:38:25.069Z,20.43
2018-06-23T12:39:25.097Z,20.46
2018-06-23T12:40:25.115Z,20.33
2018-06-23T12:41:25.212Z,20.30
2018-06-23T12:42:25.172Z,20.41
2018-06-23T12:43:25.186Z,20.46
2018-06-23T12:44:25.210Z,20.38
2018-06-23T12:45:25.245Z,20.51
2018-06-23T12:46:25.261Z,20.47
2018-06-23T12:47:25.284Z,20.54
2018-06-23T12:48:25.356Z,20.59
2018-06-23T12:49:25.332Z,20.53
2018-06-23T12:50:25.378Z,20.54
2018-06-23T12:51:25.378Z,20.53
2018-06-23T12:52:25.410Z,20.62